Disclaimer

Please do not use the information listed here in-flight or in-navigation, as they are not provided to us by the airports but are provided by volunteers, so they might be outdated.

Search


Regions


Airport information page

Radio informations:
Tower (TWR) - 118.35 MHz
APN ADVSY - 122.075 MHz
LONDON RDO - 123.275 MHz
Ground (GND) - 118.0 MHz
DEP - 127.575 MHz
Automatic Terminal Information Service (ATIS) - 112.15 MHz
Approach (APP) - 124.475 MHz
VFR ADVSY - 119.3 MHz

Airport informations:
Latitude: 43° 40' 38.00" N
Longitude: 079° 37' 50.00" W
Elevation: 569 feet - 173 meters
Operating hours: 24 hour operations
Operating agency: Civil government, landing fees and diplomatic clearance may be required
Timezone: UTC-5(-4DT) - Second Sunday in March at 0200 to first Sunday in November at 0200 local time (Exception Arizona and that portion of Indiana in the Eastern Time Zone)
Fuel: Jet A1+, Jet A1 with icing inhibitor.

Jet B, Wide cut turbine fuel, Without icing inhibitor.

Jet A1, without icing nhibitor.

115/145 octane gasoline, leaded, MIL-L-5572F (PURPLE)

100/130 octane gasoline, leaded, MIL-L-5572F (GREEN)

100/130 MIL Spec, low lead, aviation gasoline (BLUE)

Runway information:
05/23 - 11120 x 200 feet< - >3389 x 61 meters
06R/24L - 9000 x 200 feet< - >2743 x 61 meters
06L/24R - 9697 x 200 feet< - >2956 x 61 meters
15R/33L - 9088 x 200 feet< - >2770 x 61 meters
15L/33R - 11050 x 200 feet< - >3368 x 61 meters

Recent METARs:
CYYZ 181700Z 15004KT 120V180 15SM OVC038 01/M06 A3024 RMK SC8 SLP250
CYYZ 181800Z 15005KT 15SM OVC037 01/M06 A3021 RMK SC8 SLP239
CYYZ 181800Z 15005KT 15SM OVC037 01/M06 A3021 RMK SC8 SLP239

Airport on the map: